Time;durP1;ratioP1;P1;durP2;ratioP2;P2;SDS_P1;SDS_P2;PMS_P1;PMS_P2;Temp;Humidity;BMP_temperature;BMP_pressure;BME280_temperature;BME280_humidity;BME280_pressure;Samples;Min_cycle;Max_cycle;Signal;HPM_P1;HPM_P2
2023/09/02 00:01:42;;;;;;;3.60;3.30;;;;;;;;;;5019541;28;20241;-86
2023/09/02 00:04:08;;;;;;;3.30;3.00;;;;;;;;;;5006282;28;20226;-85
2023/09/02 00:06:35;;;;;;;3.33;3.13;;;;;;;;;;5054008;28;20223;-86
2023/09/02 00:09:03;;;;;;;3.07;2.77;;;;;;;;;;5012507;28;20218;-87
2023/09/02 00:11:29;;;;;;;4.53;3.40;;;;;;;;;;5054890;28;20226;-85
2023/09/02 00:13:54;;;;;;;3.77;3.43;;;;;;;;;;5008533;28;20214;-85
2023/09/02 00:16:20;;;;;;;3.33;3.03;;;;;;;;;;5009210;28;20222;-87
2023/09/02 00:18:47;;;;;;;3.40;3.10;;;;;;;;;;5041023;28;20231;-86
2023/09/02 00:21:13;;;;;;;4.40;2.97;;;;;;;;;;5022958;28;20234;-86
2023/09/02 00:23:47;;;;;;;4.60;3.20;;;;;;;;;;5039640;28;20226;-83
2023/09/02 00:26:13;;;;;;;3.40;3.20;;;;;;;;;;5020742;28;20223;-84
2023/09/02 00:28:42;;;;;;;4.03;3.10;;;;;;;;;;5016935;28;20222;-85
2023/09/02 00:31:07;;;;;;;3.20;2.90;;;;;;;;;;5026038;28;21029;-85
2023/09/02 00:33:40;;;;;;;3.07;2.70;;;;;;;;;;5038626;28;20272;-83
2023/09/02 00:36:06;;;;;;;3.73;2.93;;;;;;;;;;5021466;28;20648;-83
2023/09/02 00:38:33;;;;;;;2.77;2.57;;;;;;;;;;5027012;28;20339;-84
2023/09/02 00:41:00;;;;;;;2.77;2.57;;;;;;;;;;5020370;28;20666;-84
2023/09/02 00:43:27;;;;;;;2.30;2.17;;;;;;;;;;5020806;28;20687;-83
2023/09/02 00:45:52;;;;;;;3.13;2.93;;;;;;;;;;5009469;28;20231;-84
2023/09/02 00:48:22;;;;;;;2.70;2.50;;;;;;;;;;5038076;28;21263;-85
2023/09/02 00:50:48;;;;;;;2.57;2.43;;;;;;;;;;5025538;28;20227;-85
2023/09/02 00:53:19;;;;;;;2.77;2.57;;;;;;;;;;5022226;28;20271;-85
2023/09/02 00:55:46;;;;;;;2.47;2.27;;;;;;;;;;5028833;28;20223;-85
2023/09/02 00:58:15;;;;;;;2.60;2.40;;;;;;;;;;5023707;28;20238;-86
2023/09/02 01:00:42;;;;;;;2.47;2.30;;;;;;;;;;5025167;28;20235;-84
2023/09/02 01:03:08;;;;;;;2.47;2.37;;;;;;;;;;5040328;28;20561;-85
2023/09/02 01:05:36;;;;;;;3.03;1.90;;;;;;;;;;5011287;28;20307;-85
2023/09/02 01:08:03;;;;;;;1.87;1.77;;;;;;;;;;5048256;28;20274;-87
2023/09/02 01:10:29;;;;;;;3.53;2.37;;;;;;;;;;5034776;28;20225;-83
2023/09/02 01:12:54;;;;;;;3.50;2.20;;;;;;;;;;5033410;28;20223;-83
2023/09/02 01:15:20;;;;;;;2.20;2.10;;;;;;;;;;5045455;28;20609;-82
2023/09/02 01:17:47;;;;;;;2.50;2.33;;;;;;;;;;5032755;28;20219;-86
2023/09/02 01:20:15;;;;;;;2.83;2.37;;;;;;;;;;5024950;28;20299;-85
2023/09/02 01:23:19;;;;;;;3.37;2.30;;;;;;;;;;5042901;28;20222;-85
2023/09/02 01:25:53;;;;;;;2.90;2.57;;;;;;;;;;5043746;28;20284;-86
2023/09/02 01:28:28;;;;;;;3.57;2.77;;;;;;;;;;5040253;28;20230;-86
2023/09/02 01:30:58;;;;;;;3.53;2.90;;;;;;;;;;5037598;28;20250;-85
2023/09/02 01:33:26;;;;;;;2.43;2.33;;;;;;;;;;5030817;28;20229;-85
2023/09/02 01:35:52;;;;;;;2.60;2.40;;;;;;;;;;5020316;28;20257;-84
2023/09/02 01:38:20;;;;;;;5.33;2.67;;;;;;;;;;5022219;28;20227;-84
2023/09/02 01:40:47;;;;;;;2.37;2.23;;;;;;;;;;5028519;28;20588;-86
2023/09/02 01:43:16;;;;;;;2.67;2.47;;;;;;;;;;5024148;28;20225;-84
2023/09/02 01:45:44;;;;;;;3.70;2.73;;;;;;;;;;5021391;28;20696;-85
2023/09/02 01:48:12;;;;;;;2.93;2.67;;;;;;;;;;5022513;28;20235;-85
2023/09/02 01:50:41;;;;;;;2.63;2.50;;;;;;;;;;5017200;28;20261;-84
2023/09/02 01:53:10;;;;;;;2.70;2.27;;;;;;;;;;5023898;28;20272;-84
2023/09/02 01:55:37;;;;;;;2.67;2.47;;;;;;;;;;5008593;28;20225;-84
2023/09/02 01:58:03;;;;;;;2.70;2.50;;;;;;;;;;5010523;28;20272;-84
2023/09/02 02:00:31;;;;;;;3.43;2.33;;;;;;;;;;5022433;28;20216;-85
2023/09/02 02:02:58;;;;;;;2.93;2.63;;;;;;;;;;5036402;28;20660;-84
2023/09/02 02:05:42;;;;;;;2.70;2.50;;;;;;;;;;5037103;28;20207;-86
2023/09/02 02:08:12;;;;;;;2.33;2.23;;;;;;;;;;5025807;28;20226;-87
2023/09/02 02:10:38;;;;;;;3.23;2.93;;;;;;;;;;5013395;28;20589;-86
2023/09/02 02:13:06;;;;;;;3.47;2.37;;;;;;;;;;5024954;28;20591;-84
2023/09/02 02:15:34;;;;;;;3.10;2.60;;;;;;;;;;5021366;28;20727;-85
2023/09/02 02:18:04;;;;;;;2.70;2.50;;;;;;;;;;5029189;28;20215;-87
2023/09/02 02:20:37;;;;;;;2.70;2.50;;;;;;;;;;5015953;28;20222;-85
2023/09/02 02:23:03;;;;;;;2.67;2.57;;;;;;;;;;5022921;28;20236;-86
2023/09/02 02:25:29;;;;;;;3.20;2.80;;;;;;;;;;5039940;28;20222;-83
2023/09/02 02:27:54;;;;;;;3.63;2.90;;;;;;;;;;5020411;28;20211;-84
2023/09/02 02:30:20;;;;;;;2.63;2.40;;;;;;;;;;5036114;28;20643;-86
2023/09/02 02:32:48;;;;;;;2.70;2.50;;;;;;;;;;5008931;28;20225;-84
2023/09/02 02:35:13;;;;;;;3.10;2.60;;;;;;;;;;5024349;28;20203;-84
2023/09/02 02:37:39;;;;;;;4.43;3.07;;;;;;;;;;5021434;28;20215;-83
2023/09/02 02:40:10;;;;;;;3.00;2.80;;;;;;;;;;5028226;28;20215;-85
2023/09/02 02:42:36;;;;;;;2.63;2.47;;;;;;;;;;5039969;28;20237;-83
2023/09/02 02:45:01;;;;;;;3.63;3.30;;;;;;;;;;5034956;28;20587;-83
2023/09/02 02:47:29;;;;;;;2.90;2.70;;;;;;;;;;5004112;28;20222;-84
2023/09/02 02:49:56;;;;;;;2.70;2.50;;;;;;;;;;5020772;28;20695;-84
2023/09/02 02:52:22;;;;;;;4.20;2.97;;;;;;;;;;5020232;28;20215;-83
2023/09/02 02:54:48;;;;;;;2.90;2.67;;;;;;;;;;5004122;28;20664;-83
2023/09/02 02:57:15;;;;;;;3.30;2.70;;;;;;;;;;5003857;28;20699;-83
2023/09/02 02:59:41;;;;;;;2.13;2.03;;;;;;;;;;5026169;28;20302;-84
2023/09/02 03:02:06;;;;;;;2.47;2.37;;;;;;;;;;5023529;28;20217;-84
2023/09/02 03:04:37;;;;;;;2.90;2.70;;;;;;;;;;5005651;28;20327;-84
2023/09/02 03:07:09;;;;;;;3.17;2.87;;;;;;;;;;5017697;28;20219;-84
2023/09/02 03:09:37;;;;;;;3.07;2.80;;;;;;;;;;5005842;28;20619;-83
2023/09/02 03:12:02;;;;;;;3.13;2.93;;;;;;;;;;5037229;28;20217;-84
2023/09/02 03:14:31;;;;;;;7.77;3.33;;;;;;;;;;5009675;28;20766;-85
2023/09/02 03:16:58;;;;;;;3.00;2.80;;;;;;;;;;5003035;28;20589;-84
2023/09/02 03:19:28;;;;;;;3.57;2.57;;;;;;;;;;5023969;28;20307;-83
2023/09/02 03:21:57;;;;;;;2.73;2.53;;;;;;;;;;5038871;28;20303;-84
2023/09/02 03:24:25;;;;;;;2.90;2.70;;;;;;;;;;5006283;28;20226;-83
2023/09/02 03:26:51;;;;;;;2.83;2.63;;;;;;;;;;5018924;28;20211;-83
2023/09/02 03:29:20;;;;;;;2.90;2.70;;;;;;;;;;5021169;28;20204;-84
2023/09/02 03:31:48;;;;;;;2.73;2.53;;;;;;;;;;5040434;28;20207;-84
2023/09/02 03:34:17;;;;;;;2.87;2.67;;;;;;;;;;5022644;28;20203;-84
2023/09/02 03:36:45;;;;;;;3.03;2.70;;;;;;;;;;5039122;28;20313;-84
2023/09/02 03:39:15;;;;;;;3.13;2.83;;;;;;;;;;5022173;28;20346;-84
2023/09/02 03:41:46;;;;;;;5.17;2.47;;;;;;;;;;5016178;28;20804;-84
2023/09/02 03:44:11;;;;;;;2.50;2.30;;;;;;;;;;5044603;28;20232;-81
2023/09/02 03:46:37;;;;;;;4.60;2.20;;;;;;;;;;5014966;28;20243;-83
2023/09/02 03:49:03;;;;;;;2.67;2.47;;;;;;;;;;5009223;28;20776;-83
2023/09/02 03:51:31;;;;;;;2.50;2.30;;;;;;;;;;5021463;28;20223;-83
2023/09/02 03:54:01;;;;;;;2.70;2.50;;;;;;;;;;5040400;28;20252;-83
2023/09/02 03:56:36;;;;;;;2.60;2.40;;;;;;;;;;5040567;28;20233;-83
2023/09/02 03:59:08;;;;;;;2.77;2.57;;;;;;;;;;5043507;28;20237;-83
2023/09/02 04:05:21;;;;;;;2.40;2.20;;;;;;;;;;5088855;28;20218;-83
2023/09/02 04:07:47;;;;;;;7.07;2.10;;;;;;;;;;5045024;28;20227;-86
2023/09/02 04:10:12;;;;;;;2.60;2.40;;;;;;;;;;5011360;28;20221;-86
2023/09/02 04:12:38;;;;;;;3.43;2.80;;;;;;;;;;5010648;28;20312;-86
2023/09/02 04:15:08;;;;;;;3.10;2.37;;;;;;;;;;5026497;28;20207;-85
2023/09/02 04:17:36;;;;;;;2.20;2.00;;;;;;;;;;5026369;28;20654;-86
2023/09/02 04:20:04;;;;;;;2.83;2.50;;;;;;;;;;5035575;28;20208;-84
2023/09/02 04:22:29;;;;;;;2.60;2.40;;;;;;;;;;5022896;28;20207;-84
2023/09/02 04:24:57;;;;;;;2.83;2.33;;;;;;;;;;5039235;28;20203;-83
2023/09/02 04:27:23;;;;;;;2.57;2.20;;;;;;;;;;5037171;28;20250;-84
2023/09/02 04:29:49;;;;;;;2.30;2.20;;;;;;;;;;5055198;28;20244;-84
2023/09/02 04:32:31;;;;;;;2.40;2.30;;;;;;;;;;5039733;28;20211;-84
2023/09/02 04:34:58;;;;;;;2.40;2.17;;;;;;;;;;5057976;28;20218;-84
2023/09/02 04:37:28;;;;;;;3.27;2.40;;;;;;;;;;5015294;28;20331;-85
2023/09/02 04:39:54;;;;;;;5.83;2.70;;;;;;;;;;5031297;28;20335;-87
2023/09/02 04:42:22;;;;;;;3.10;2.50;;;;;;;;;;5030815;28;20219;-85
2023/09/02 04:44:50;;;;;;;2.43;2.33;;;;;;;;;;5013078;28;20214;-86
2023/09/02 04:47:19;;;;;;;2.30;2.17;;;;;;;;;;5011521;28;20272;-84
2023/09/02 04:49:47;;;;;;;3.43;2.67;;;;;;;;;;5025617;28;20262;-85
2023/09/02 04:52:15;;;;;;;2.50;2.30;;;;;;;;;;5026479;28;20205;-85
2023/09/02 04:54:44;;;;;;;3.20;2.40;;;;;;;;;;5028249;28;20264;-85
2023/09/02 04:57:13;;;;;;;2.97;2.27;;;;;;;;;;5010642;28;20245;-85
2023/09/02 04:59:41;;;;;;;2.73;2.53;;;;;;;;;;5045767;28;20290;-86
2023/09/02 05:02:09;;;;;;;3.77;2.40;;;;;;;;;;5004518;28;20217;-84
2023/09/02 05:04:38;;;;;;;2.57;2.37;;;;;;;;;;5025751;28;20217;-84
2023/09/02 05:07:04;;;;;;;2.13;2.03;;;;;;;;;;5013878;28;20199;-84
2023/09/02 05:09:30;;;;;;;2.53;2.33;;;;;;;;;;5054927;28;20771;-84
2023/09/02 05:12:00;;;;;;;2.70;2.50;;;;;;;;;;5037560;28;20203;-85
2023/09/02 05:14:25;;;;;;;3.60;2.80;;;;;;;;;;5025777;28;20259;-84
2023/09/02 05:16:51;;;;;;;2.70;2.50;;;;;;;;;;5070032;28;20231;-84
2023/09/02 05:19:17;;;;;;;2.20;2.10;;;;;;;;;;5035318;28;20219;-87
2023/09/02 05:21:42;;;;;;;2.97;2.60;;;;;;;;;;5009743;28;20229;-87
2023/09/02 05:24:10;;;;;;;7.83;3.77;;;;;;;;;;5026545;28;20762;-88
2023/09/02 05:26:38;;;;;;;3.07;2.60;;;;;;;;;;5038413;28;20234;-85
2023/09/02 05:29:03;;;;;;;4.70;2.47;;;;;;;;;;5022079;28;20596;-86
2023/09/02 05:31:31;;;;;;;2.83;2.20;;;;;;;;;;5020407;28;20782;-85
2023/09/02 05:33:59;;;;;;;2.93;2.20;;;;;;;;;;5006794;28;20994;-84
2023/09/02 05:36:24;;;;;;;2.40;2.30;;;;;;;;;;5016583;28;20276;-85
2023/09/02 05:38:50;;;;;;;2.60;2.43;;;;;;;;;;5011094;28;20330;-85
2023/09/02 05:41:18;;;;;;;3.10;2.80;;;;;;;;;;5020552;28;20218;-84
2023/09/02 05:43:43;;;;;;;3.10;2.90;;;;;;;;;;5020467;28;21249;-83
2023/09/02 05:46:09;;;;;;;3.50;2.33;;;;;;;;;;5036813;28;20222;-84
2023/09/02 05:48:34;;;;;;;2.40;2.20;;;;;;;;;;5032968;28;20223;-84
2023/09/02 05:51:02;;;;;;;2.60;2.40;;;;;;;;;;5032612;28;20221;-83
2023/09/02 05:53:30;;;;;;;2.27;2.17;;;;;;;;;;5019041;28;20234;-83
2023/09/02 05:55:58;;;;;;;2.47;2.27;;;;;;;;;;5039411;28;20215;-82
2023/09/02 05:58:24;;;;;;;2.60;2.40;;;;;;;;;;5032028;28;20245;-84
2023/09/02 06:00:52;;;;;;;6.03;2.63;;;;;;;;;;5017730;28;20226;-82
2023/09/02 06:03:17;;;;;;;2.70;2.50;;;;;;;;;;5039030;28;20207;-82
2023/09/02 06:05:43;;;;;;;2.30;2.10;;;;;;;;;;4998971;28;20281;-82
2023/09/02 06:08:09;;;;;;;2.30;2.10;;;;;;;;;;5024352;28;20219;-84
2023/09/02 06:10:35;;;;;;;3.20;2.33;;;;;;;;;;5014780;28;20223;-84
2023/09/02 06:13:01;;;;;;;3.20;2.43;;;;;;;;;;5040554;28;20211;-85
2023/09/02 06:15:27;;;;;;;2.63;2.43;;;;;;;;;;4981498;28;20258;-84
2023/09/02 06:17:53;;;;;;;3.37;2.33;;;;;;;;;;5006093;28;20222;-84
2023/09/02 06:20:21;;;;;;;3.27;2.30;;;;;;;;;;5033881;28;20266;-84
2023/09/02 06:22:49;;;;;;;2.40;2.20;;;;;;;;;;5026753;28;20553;-84
2023/09/02 06:25:15;;;;;;;3.20;2.50;;;;;;;;;;4999985;28;20231;-85
2023/09/02 06:27:43;;;;;;;2.93;2.40;;;;;;;;;;5004585;28;20218;-84
2023/09/02 06:30:13;;;;;;;2.47;2.27;;;;;;;;;;5021710;28;20214;-85
2023/09/02 06:32:41;;;;;;;2.83;2.50;;;;;;;;;;5022201;28;20218;-84
2023/09/02 06:35:11;;;;;;;3.23;2.70;;;;;;;;;;5020218;28;20820;-84
2023/09/02 06:37:39;;;;;;;4.73;3.10;;;;;;;;;;5037447;28;20239;-84
2023/09/02 06:40:08;;;;;;;4.43;3.27;;;;;;;;;;5010819;28;20261;-85
2023/09/02 06:42:36;;;;;;;3.57;3.23;;;;;;;;;;5020901;28;20295;-84
2023/09/02 06:45:04;;;;;;;4.37;3.97;;;;;;;;;;5000978;28;20231;-85
2023/09/02 06:47:29;;;;;;;4.40;4.00;;;;;;;;;;5019186;28;20235;-85
2023/09/02 06:49:57;;;;;;;5.00;4.33;;;;;;;;;;5022839;28;20218;-86
2023/09/02 06:52:23;;;;;;;4.00;3.70;;;;;;;;;;5021291;28;20222;-86
2023/09/02 06:54:48;;;;;;;4.60;4.20;;;;;;;;;;5029983;28;20224;-85
2023/09/02 06:57:19;;;;;;;7.83;7.13;;;;;;;;;;5026773;28;20230;-85
2023/09/02 06:59:44;;;;;;;7.63;7.00;;;;;;;;;;5007064;28;20234;-84
2023/09/02 07:02:10;;;;;;;9.00;8.20;;;;;;;;;;5027157;28;20586;-87
2023/09/02 07:04:38;;;;;;;8.77;8.07;;;;;;;;;;5026333;28;20226;-87
2023/09/02 07:07:03;;;;;;;8.60;7.87;;;;;;;;;;5042423;28;20219;-86
2023/09/02 07:09:29;;;;;;;8.60;7.80;;;;;;;;;;5010848;28;20608;-88
2023/09/02 07:11:55;;;;;;;7.68;6.97;;;;;;;;;;5045565;28;20230;-88
2023/09/02 07:14:21;;;;;;;9.07;8.35;;;;;;;;;;5029604;28;20215;-87
2023/09/02 07:16:46;;;;;;;8.82;7.95;;;;;;;;;;5012147;28;20241;-86
2023/09/02 07:19:12;;;;;;;8.35;7.60;;;;;;;;;;5008889;28;20235;-86
2023/09/02 07:21:39;;;;;;;8.10;7.28;;;;;;;;;;5055726;28;20227;-88
2023/09/02 07:24:05;;;;;;;7.90;7.00;;;;;;;;;;5017280;28;20231;-89
2023/09/02 07:26:32;;;;;;;8.48;7.05;;;;;;;;;;5026696;28;20223;-88
2023/09/02 07:28:58;;;;;;;9.35;7.13;;;;;;;;;;5013637;28;20218;-85
2023/09/02 07:31:26;;;;;;;9.23;8.20;;;;;;;;;;5012053;28;20302;-87
2023/09/02 07:33:54;;;;;;;7.55;6.75;;;;;;;;;;5028991;28;20240;-87
2023/09/02 07:36:19;;;;;;;9.60;6.75;;;;;;;;;;5032397;28;20370;-86
2023/09/02 07:38:50;;;;;;;7.25;6.60;;;;;;;;;;5026996;28;20226;-86
2023/09/02 07:41:16;;;;;;;8.10;7.40;;;;;;;;;;5012919;28;20226;-86
2023/09/02 07:43:41;;;;;;;8.93;8.02;;;;;;;;;;5013444;28;20252;-85
2023/09/02 07:46:09;;;;;;;6.80;6.20;;;;;;;;;;5029551;28;20722;-85
2023/09/02 07:48:35;;;;;;;6.45;5.90;;;;;;;;;;5027947;28;20218;-86
2023/09/02 07:51:00;;;;;;;6.00;5.45;;;;;;;;;;5012928;28;20697;-87
2023/09/02 07:53:26;;;;;;;7.20;5.90;;;;;;;;;;5030804;28;20585;-85
2023/09/02 07:55:54;;;;;;;5.78;5.28;;;;;;;;;;5058984;28;20230;-85
2023/09/02 07:58:20;;;;;;;7.93;5.30;;;;;;;;;;5039248;28;20223;-84
2023/09/02 08:00:46;;;;;;;6.55;5.93;;;;;;;;;;5040754;28;20230;-86
2023/09/02 08:03:11;;;;;;;6.32;5.72;;;;;;;;;;5027722;28;20233;-87
2023/09/02 08:05:40;;;;;;;5.68;5.20;;;;;;;;;;5024997;28;20231;-88
2023/09/02 08:08:09;;;;;;;5.28;4.78;;;;;;;;;;5017995;28;20207;-86
2023/09/02 08:10:35;;;;;;;4.97;4.30;;;;;;;;;;5028657;28;20242;-87
2023/09/02 08:13:00;;;;;;;3.78;3.35;;;;;;;;;;5014287;28;20219;-87
2023/09/02 08:15:28;;;;;;;3.58;2.85;;;;;;;;;;5027698;28;20218;-85
2023/09/02 08:17:54;;;;;;;4.22;2.30;;;;;;;;;;5040441;28;20219;-87
2023/09/02 08:20:19;;;;;;;5.05;1.98;;;;;;;;;;5014850;28;20225;-88
2023/09/02 08:22:45;;;;;;;2.17;1.83;;;;;;;;;;5029001;28;20715;-86
2023/09/02 08:25:11;;;;;;;2.13;1.40;;;;;;;;;;5028348;28;20213;-86
2023/09/02 08:27:38;;;;;;;2.55;1.85;;;;;;;;;;5023417;28;20268;-86
2023/09/02 08:30:04;;;;;;;1.88;1.30;;;;;;;;;;5042112;28;20230;-87
2023/09/02 08:32:31;;;;;;;5.28;1.50;;;;;;;;;;5031081;28;20242;-86
2023/09/02 08:34:56;;;;;;;1.83;1.63;;;;;;;;;;5028552;28;20222;-87
2023/09/02 08:37:22;;;;;;;1.83;1.40;;;;;;;;;;5014300;28;20248;-87
2023/09/02 08:39:48;;;;;;;1.40;1.27;;;;;;;;;;5027134;28;21775;-84
2023/09/02 08:42:19;;;;;;;2.22;1.30;;;;;;;;;;5027032;28;20244;-80
2023/09/02 08:44:47;;;;;;;3.00;1.80;;;;;;;;;;5041763;28;20214;-81
2023/09/02 08:47:14;;;;;;;2.20;1.77;;;;;;;;;;5026469;28;20219;-81
2023/09/02 08:49:40;;;;;;;3.38;1.95;;;;;;;;;;5013131;28;20253;-81
2023/09/02 08:52:05;;;;;;;2.78;1.73;;;;;;;;;;5041305;28;20218;-81
2023/09/02 08:54:31;;;;;;;1.83;1.45;;;;;;;;;;5049453;28;20215;-80
2023/09/02 08:56:59;;;;;;;3.33;1.85;;;;;;;;;;5039957;28;20219;-79
2023/09/02 08:59:28;;;;;;;3.05;2.30;;;;;;;;;;5055730;28;20280;-81
2023/09/02 09:01:56;;;;;;;4.15;2.10;;;;;;;;;;5008337;28;20217;-80
2023/09/02 09:04:21;;;;;;;1.92;1.83;;;;;;;;;;5043947;28;20218;-81
2023/09/02 09:06:47;;;;;;;2.65;1.90;;;;;;;;;;5058837;22;20612;-80
2023/09/02 09:09:15;;;;;;;2.75;1.73;;;;;;;;;;5054871;28;20216;-80
2023/09/02 09:11:44;;;;;;;4.28;1.90;;;;;;;;;;5056527;28;20222;-80
2023/09/02 09:14:16;;;;;;;4.65;2.50;;;;;;;;;;5061527;28;20230;-80
2023/09/02 09:16:42;;;;;;;3.05;1.80;;;;;;;;;;5071272;28;20325;-81
2023/09/02 09:19:07;;;;;;;2.67;2.13;;;;;;;;;;5059999;28;20226;-81
2023/09/02 09:21:35;;;;;;;2.65;2.45;;;;;;;;;;5060757;28;20218;-79
2023/09/02 09:24:03;;;;;;;2.38;2.17;;;;;;;;;;5073594;28;20251;-81
2023/09/02 09:26:30;;;;;;;3.47;2.28;;;;;;;;;;5069446;28;20230;-81
2023/09/02 09:28:58;;;;;;;3.85;2.17;;;;;;;;;;5067965;28;20368;-79
2023/09/02 09:31:29;;;;;;;6.25;1.98;;;;;;;;;;5050863;28;20236;-79
2023/09/02 09:34:01;;;;;;;2.97;2.38;;;;;;;;;;5061075;28;20229;-81
2023/09/02 09:36:32;;;;;;;5.32;2.50;;;;;;;;;;5042791;28;20222;-81
2023/09/02 09:39:00;;;;;;;4.90;2.40;;;;;;;;;;5057845;28;20245;-80
2023/09/02 09:41:26;;;;;;;2.03;1.83;;;;;;;;;;5055781;28;20221;-80
2023/09/02 09:44:13;;;;;;;4.95;2.38;;;;;;;;;;5040687;28;20206;-82
2023/09/02 09:46:51;;;;;;;2.92;2.08;;;;;;;;;;5071823;28;20288;-80
2023/09/02 09:49:28;;;;;;;3.70;2.45;;;;;;;;;;5045044;28;20222;-80
2023/09/02 09:51:59;;;;;;;4.43;2.10;;;;;;;;;;5089386;28;20234;-79
2023/09/02 09:54:47;;;;;;;3.88;2.20;;;;;;;;;;5058495;28;20217;-79
2023/09/02 09:57:35;;;;;;;2.47;1.80;;;;;;;;;;5084835;28;20246;-80
2023/09/02 10:00:01;;;;;;;3.92;2.50;;;;;;;;;;5068939;28;20237;-80
2023/09/02 10:02:30;;;;;;;2.50;1.90;;;;;;;;;;5053035;28;20226;-80
2023/09/02 10:05:00;;;;;;;2.05;1.95;;;;;;;;;;5046867;28;20229;-80
2023/09/02 10:07:27;;;;;;;2.35;1.77;;;;;;;;;;5062773;28;20229;-80
2023/09/02 10:09:54;;;;;;;3.17;1.80;;;;;;;;;;5071164;28;20579;-80
2023/09/02 10:12:19;;;;;;;2.38;1.92;;;;;;;;;;5078063;28;20277;-79
2023/09/02 10:14:46;;;;;;;2.38;2.17;;;;;;;;;;5063341;28;20231;-79
2023/09/02 10:17:14;;;;;;;3.85;2.35;;;;;;;;;;5060909;28;20217;-80
2023/09/02 10:19:45;;;;;;;3.10;2.33;;;;;;;;;;5063102;28;20230;-79
2023/09/02 10:22:19;;;;;;;4.72;2.67;;;;;;;;;;5075511;28;20226;-80
2023/09/02 10:25:13;;;;;;;2.50;2.30;;;;;;;;;;5050988;28;20242;-79
2023/09/02 10:27:40;;;;;;;3.35;2.20;;;;;;;;;;5051604;28;20328;-79
2023/09/02 10:30:07;;;;;;;2.95;2.30;;;;;;;;;;5073037;28;20221;-79
2023/09/02 10:32:37;;;;;;;3.28;2.40;;;;;;;;;;5058512;28;20242;-80
2023/09/02 10:35:11;;;;;;;2.63;2.00;;;;;;;;;;5079544;28;20223;-80
2023/09/02 10:37:52;;;;;;;2.20;2.00;;;;;;;;;;5056671;28;20233;-80
2023/09/02 10:40:24;;;;;;;5.20;2.58;;;;;;;;;;5067961;28;20233;-81
2023/09/02 10:42:53;;;;;;;2.42;1.90;;;;;;;;;;5062851;28;20234;-79
2023/09/02 10:45:18;;;;;;;2.63;2.05;;;;;;;;;;5061945;28;20217;-79
2023/09/02 10:47:47;;;;;;;3.13;1.88;;;;;;;;;;5037033;28;20230;-80
2023/09/02 10:50:18;;;;;;;4.18;2.58;;;;;;;;;;5075370;28;20234;-80
2023/09/02 10:52:47;;;;;;;4.95;2.47;;;;;;;;;;5060928;28;20233;-79
2023/09/02 10:55:13;;;;;;;6.75;2.45;;;;;;;;;;5063009;28;20214;-79
2023/09/02 10:57:55;;;;;;;4.47;2.92;;;;;;;;;;5047547;28;20303;-79
2023/09/02 11:00:26;;;;;;;2.17;1.98;;;;;;;;;;5058469;28;20330;-80
2023/09/02 11:02:56;;;;;;;3.08;1.95;;;;;;;;;;5047020;28;20226;-81
2023/09/02 11:05:25;;;;;;;3.33;2.08;;;;;;;;;;5075893;28;20685;-80
2023/09/02 11:07:50;;;;;;;4.15;1.92;;;;;;;;;;5054284;28;20232;-81
2023/09/02 11:10:16;;;;;;;1.73;1.55;;;;;;;;;;5039739;28;20223;-80
2023/09/02 11:13:00;;;;;;;3.20;1.70;;;;;;;;;;5054557;28;20241;-82
2023/09/02 11:15:29;;;;;;;3.45;1.92;;;;;;;;;;5086959;28;20300;-81
2023/09/02 11:17:57;;;;;;;2.50;1.80;;;;;;;;;;5040816;28;20329;-80
2023/09/02 11:20:25;;;;;;;1.92;1.58;;;;;;;;;;5055888;28;20234;-80
2023/09/02 11:23:01;;;;;;;3.63;1.80;;;;;;;;;;5060813;28;20308;-80
2023/09/02 11:25:37;;;;;;;2.60;1.60;;;;;;;;;;5079434;28;20252;-80
2023/09/02 11:28:12;;;;;;;2.78;2.00;;;;;;;;;;5061365;28;20222;-80
2023/09/02 11:30:38;;;;;;;6.05;2.03;;;;;;;;;;5072145;28;20232;-80
2023/09/02 11:33:06;;;;;;;4.30;2.08;;;;;;;;;;5069527;28;20222;-80
2023/09/02 11:35:35;;;;;;;2.88;1.80;;;;;;;;;;5054427;28;20286;-81
2023/09/02 11:38:01;;;;;;;2.28;2.00;;;;;;;;;;5074803;28;20218;-80
2023/09/02 11:40:27;;;;;;;2.45;1.73;;;;;;;;;;5056734;28;20388;-80
2023/09/02 11:43:00;;;;;;;2.65;2.08;;;;;;;;;;5059186;28;20218;-79
2023/09/02 11:45:32;;;;;;;2.05;1.83;;;;;;;;;;5042445;28;20283;-78
2023/09/02 11:48:01;;;;;;;4.18;1.98;;;;;;;;;;5021500;28;20218;-79
2023/09/02 11:50:27;;;;;;;2.00;1.80;;;;;;;;;;5057031;28;20226;-79
2023/09/02 11:52:54;;;;;;;3.55;1.67;;;;;;;;;;5054296;28;20226;-80
2023/09/02 11:55:22;;;;;;;2.10;1.63;;;;;;;;;;5054491;28;20228;-80
2023/09/02 11:57:48;;;;;;;3.35;2.00;;;;;;;;;;5073728;28;20227;-79
2023/09/02 12:00:23;;;;;;;2.35;2.03;;;;;;;;;;5070953;28;20231;-79
2023/09/02 12:02:50;;;;;;;2.75;1.55;;;;;;;;;;5073645;28;20230;-80
2023/09/02 12:05:17;;;;;;;4.38;1.80;;;;;;;;;;5051671;28;20771;-81
2023/09/02 12:07:44;;;;;;;10.50;2.00;;;;;;;;;;5057325;28;20234;-79
2023/09/02 12:10:13;;;;;;;1.70;1.60;;;;;;;;;;5037555;28;20249;-78
2023/09/02 12:12:45;;;;;;;2.90;1.70;;;;;;;;;;5041961;28;20241;-78
2023/09/02 12:15:16;;;;;;;5.90;2.10;;;;;;;;;;5072015;28;20219;-79
2023/09/02 12:17:45;;;;;;;2.95;1.67;;;;;;;;;;5059843;28;20253;-78
2023/09/02 12:20:17;;;;;;;1.63;1.52;;;;;;;;;;5056642;28;20250;-79
2023/09/02 12:22:43;;;;;;;1.85;1.75;;;;;;;;;;5037189;28;20226;-79
2023/09/02 12:25:22;;;;;;;2.53;1.50;;;;;;;;;;5032814;28;20214;-79
2023/09/02 12:27:48;;;;;;;1.55;1.42;;;;;;;;;;5074112;28;20249;-79
2023/09/02 12:30:25;;;;;;;3.65;1.50;;;;;;;;;;5072983;28;20238;-80
2023/09/02 12:32:51;;;;;;;1.85;1.70;;;;;;;;;;5042859;28;20226;-79
2023/09/02 12:35:17;;;;;;;2.17;1.60;;;;;;;;;;5071683;28;20828;-79
2023/09/02 12:37:42;;;;;;;12.05;2.67;;;;;;;;;;5052147;28;20283;-80
2023/09/02 12:40:12;;;;;;;2.60;1.77;;;;;;;;;;5066322;28;20299;-79
2023/09/02 12:42:37;;;;;;;3.10;2.38;;;;;;;;;;5037328;28;20223;-78
2023/09/02 12:45:08;;;;;;;2.15;1.95;;;;;;;;;;5045986;28;20296;-79
2023/09/02 12:47:35;;;;;;;3.95;1.98;;;;;;;;;;5023122;28;20222;-78
2023/09/02 12:50:03;;;;;;;9.93;3.20;;;;;;;;;;5055248;28;20222;-78
2023/09/02 12:52:30;;;;;;;2.70;2.13;;;;;;;;;;5053554;28;20245;-79
2023/09/02 12:55:03;;;;;;;3.13;1.90;;;;;;;;;;5069303;28;20310;-77
2023/09/02 12:57:32;;;;;;;3.30;2.03;;;;;;;;;;5048593;28;20265;-79
2023/09/02 12:59:59;;;;;;;2.65;1.98;;;;;;;;;;5046744;28;20291;-80
2023/09/02 13:02:25;;;;;;;3.70;2.35;;;;;;;;;;5028284;28;20210;-80
2023/09/02 13:04:53;;;;;;;4.32;2.33;;;;;;;;;;5038773;28;20225;-78
2023/09/02 13:07:22;;;;;;;7.07;2.60;;;;;;;;;;5085348;28;20317;-79
2023/09/02 13:09:48;;;;;;;3.05;2.33;;;;;;;;;;5045203;28;20590;-79
2023/09/02 13:12:13;;;;;;;3.72;2.20;;;;;;;;;;5054849;28;20223;-79
2023/09/02 13:14:41;;;;;;;2.08;1.98;;;;;;;;;;5033998;28;20835;-77
2023/09/02 13:17:07;;;;;;;2.05;1.92;;;;;;;;;;5048351;28;20287;-78
2023/09/02 13:19:36;;;;;;;3.55;2.50;;;;;;;;;;5017847;28;20234;-78
2023/09/02 13:22:02;;;;;;;3.75;2.00;;;;;;;;;;5076486;28;20279;-80
2023/09/02 13:24:27;;;;;;;1.83;1.63;;;;;;;;;;5071310;28;20223;-80
2023/09/02 13:26:53;;;;;;;2.55;1.67;;;;;;;;;;5041575;28;20252;-80
2023/09/02 13:29:19;;;;;;;10.45;2.03;;;;;;;;;;5049069;28;20219;-79
2023/09/02 13:31:47;;;;;;;2.28;2.00;;;;;;;;;;5056685;28;20210;-79
2023/09/02 13:34:22;;;;;;;3.53;2.15;;;;;;;;;;5089513;28;20242;-80
2023/09/02 13:36:47;;;;;;;6.15;2.30;;;;;;;;;;5073590;28;20233;-80
2023/09/02 13:39:15;;;;;;;3.85;2.15;;;;;;;;;;5070464;28;20237;-81
2023/09/02 13:41:43;;;;;;;2.03;1.83;;;;;;;;;;5076394;28;20207;-81
2023/09/02 13:44:08;;;;;;;2.40;2.00;;;;;;;;;;5062510;28;20211;-80
2023/09/02 13:46:34;;;;;;;2.58;1.80;;;;;;;;;;5069360;28;20217;-80
2023/09/02 13:48:59;;;;;;;7.78;3.00;;;;;;;;;;5068005;28;20686;-79
2023/09/02 13:51:27;;;;;;;8.50;3.58;;;;;;;;;;5067567;28;20218;-81
2023/09/02 13:53:55;;;;;;;4.70;2.22;;;;;;;;;;5058411;28;20214;-81
2023/09/02 13:56:23;;;;;;;2.65;2.33;;;;;;;;;;5073631;28;20226;-80
2023/09/02 13:58:51;;;;;;;2.40;2.20;;;;;;;;;;5064446;28;20238;-78
2023/09/02 14:01:17;;;;;;;3.40;2.40;;;;;;;;;;5065005;28;20232;-85
2023/09/02 14:03:43;;;;;;;2.80;2.58;;;;;;;;;;5041825;28;20218;-85
2023/09/02 14:06:09;;;;;;;3.10;2.15;;;;;;;;;;5033306;28;20235;-83
2023/09/02 14:08:44;;;;;;;2.50;2.22;;;;;;;;;;5076443;28;20210;-84
2023/09/02 14:11:09;;;;;;;2.85;2.20;;;;;;;;;;5039690;28;20221;-83
2023/09/02 14:13:38;;;;;;;2.55;2.28;;;;;;;;;;5043807;28;20212;-83
2023/09/02 14:16:06;;;;;;;3.15;2.17;;;;;;;;;;5057606;28;20717;-85
2023/09/02 14:18:32;;;;;;;2.80;2.30;;;;;;;;;;5047528;28;20293;-84
2023/09/02 14:20:57;;;;;;;5.00;2.38;;;;;;;;;;5056954;28;20218;-87
2023/09/02 14:23:26;;;;;;;5.00;2.40;;;;;;;;;;5042735;28;20202;-85
2023/09/02 14:25:56;;;;;;;4.10;2.65;;;;;;;;;;5039137;28;20531;-85
2023/09/02 14:28:25;;;;;;;3.63;2.45;;;;;;;;;;5042545;28;20218;-85
2023/09/02 14:30:51;;;;;;;4.43;2.70;;;;;;;;;;5045191;28;20754;-86
2023/09/02 14:33:19;;;;;;;2.75;2.30;;;;;;;;;;5058629;28;20221;-86
2023/09/02 14:35:45;;;;;;;5.05;2.80;;;;;;;;;;5044583;28;20217;-84
2023/09/02 14:38:12;;;;;;;2.83;2.42;;;;;;;;;;5038591;28;20580;-85
2023/09/02 14:40:38;;;;;;;2.35;2.15;;;;;;;;;;5055661;28;20214;-86
2023/09/02 14:43:04;;;;;;;4.15;2.60;;;;;;;;;;5046143;28;20210;-86
2023/09/02 14:45:31;;;;;;;3.78;2.40;;;;;;;;;;5046354;28;20222;-86
2023/09/02 14:47:59;;;;;;;4.30;2.47;;;;;;;;;;5042674;28;20705;-85
2023/09/02 14:50:28;;;;;;;3.33;2.05;;;;;;;;;;5041294;28;20215;-85
2023/09/02 14:52:53;;;;;;;4.28;2.42;;;;;;;;;;5042023;28;20206;-85